Happy Valley, Tennessee
Current Conditions -  °F | °C
As of 1:53 PM on Saturday 25 Oct 2014 (Local Time) from KTYS Reporting Station
Clear Clear  
Wind Chill: 19°   Ceiling: Unl
Heat Index: 19°   Visibility: 10mi
Dew Point:   Wind: 3mph
Humidity: 51%   Direction: 290°WNW
Pressure: 30.06"   Gusts: NA
Location:  35.5537°N, 83.9603°W
Report Text: KTYS 251753Z 29003KT 10SM CLR 19/09 A3006 RMK AO2 SLP175 T01940089 10194 20050 58016
Loading
Personal Weather Stations






























Interactive Weather Map
Tropical Storm Tracking
New forecast layout! Learn more

10-Day Weather Forecast

Advertisements
Track Severe Weather on mobile